Jupiter Spirit — A8ZC2 — position and weather

sailwx.info

Track history (hours):
 
Tides and Currents Weather Stations Pressure Air Temp Water Temp Dewpoint Dewpoint Depression Visibility Wind Speed Wind Dir Waves Ship Positions

Jupiter Spirit

Last reported at 2016-Dec-23 03:24 UTC. Time now 2017-Jan-18 14:00 UTC.
Position N 33°38' W 126°30'.
Warning: this ship's position is 26 days out of date.

Length 183 m; draft 7.9 m.

Type: Cargo ship. MMSI: 636015173.

Date/timePositionNaut miles runAvg speedWind from/ knotsBaromVisibWave heightAir tempDewpointWater temp
2016-Dec-23 03:24N 33°38' W 126°30'3516.6
2016-Dec-23 01:18N 33°39' W 125°49'3216.5
2016-Dec-22 23:22N 33°39' W 125°10'1716.9
2016-Dec-22 22:22N 33°40' W 124°50'1516.5
2016-Dec-22 21:27N 33°40' W 124°32'1516.4
2016-Dec-22 20:33N 33°40' W 124°14'21417.2
2016-Dec-22 08:07N 33°39' W 119°57'1218.6
2016-Dec-22 07:29N 33°39' W 119°43'73 4.8
2016-Dec-21 16:12N 33°46' W 118°15'0 0.0
2016-Dec-21 15:33N 33°46' W 118°15'0 0.0
2016-Dec-21 14:28N 33°46' W 118°15'0 0.0
2016-Dec-21 13:25N 33°46' W 118°15'0 0.0
2016-Dec-21 12:33N 33°46' W 118°15'0 0.0
2016-Dec-21 11:33N 33°46' W 118°15'0 0.0
2016-Dec-21 10:33N 33°46' W 118°15'0 0.0
2016-Dec-21 09:31N 33°46' W 118°15'0 0.0
2016-Dec-21 08:33N 33°46' W 118°15'8 1.0
2016-Dec-21 00:22N 33°38' W 118°15'67 9.6
2016-Dec-20 17:20N 33°37' W 119°36'1012.7
2016-Dec-20 16:32N 33°37' W 119°48'2712.2
2016-Dec-20 14:20N 33°38' W 120°21'1112.2
2016-Dec-20 13:25N 33°38' W 120°34'8 8.8
2016-Dec-20 12:33N 33°38' W 120°43'1212.5
2016-Dec-20 11:33N 33°39' W 120°58'1612.7
2016-Dec-20 10:20N 33°39' W 121°17'3512.6
2016-Dec-20 07:33N 33°39' W 121°59'1212.4
2016-Dec-20 06:33N 33°40' W 122°14'1212.2
2016-Dec-20 05:33N 33°40' W 122°28'1312.6
2016-Dec-20 04:33N 33°40' W 122°43'1312.6
2016-Dec-20 03:31N 33°41' W 122°59'1212.4
2016-Dec-20 02:33N 33°41' W 123°14'1212.4
2016-Dec-20 01:33N 33°41' W 123°28'6712.2
2016-Dec-19 20:04N 33°48' W 124°48'  
Track history (hours):
 
Tides and Currents Weather Stations Pressure Air Temp Water Temp Dewpoint Dewpoint Depression Visibility Wind Speed Wind Dir Waves Ship Positions

Jupiter Spirit

Last reported at 2016-Dec-23 03:24 UTC. Time now 2017-Jan-18 14:00 UTC.
Position N 33°38' W 126°30'.
Warning: this ship's position is 26 days out of date.

Length 183 m; draft 7.9 m.

Type: Cargo ship. MMSI: 636015173.

Date/timePositionNaut miles runAvg speedWind from/ knotsBaromVisibWave heightAir tempDewpointWater temp
2016-Dec-23 03:24N 33°38' W 126°30'3516.6
2016-Dec-23 01:18N 33°39' W 125°49'3216.5
2016-Dec-22 23:22N 33°39' W 125°10'1716.9
2016-Dec-22 22:22N 33°40' W 124°50'1516.5
2016-Dec-22 21:27N 33°40' W 124°32'1516.4
2016-Dec-22 20:33N 33°40' W 124°14'21417.2
2016-Dec-22 08:07N 33°39' W 119°57'1218.6
2016-Dec-22 07:29N 33°39' W 119°43'73 4.8
2016-Dec-21 16:12N 33°46' W 118°15'0 0.0
2016-Dec-21 15:33N 33°46' W 118°15'0 0.0
2016-Dec-21 14:28N 33°46' W 118°15'0 0.0
2016-Dec-21 13:25N 33°46' W 118°15'0 0.0
2016-Dec-21 12:33N 33°46' W 118°15'0 0.0
2016-Dec-21 11:33N 33°46' W 118°15'0 0.0
2016-Dec-21 10:33N 33°46' W 118°15'0 0.0
2016-Dec-21 09:31N 33°46' W 118°15'0 0.0
2016-Dec-21 08:33N 33°46' W 118°15'8 1.0
2016-Dec-21 00:22N 33°38' W 118°15'67 9.6
2016-Dec-20 17:20N 33°37' W 119°36'1012.7
2016-Dec-20 16:32N 33°37' W 119°48'2712.2
2016-Dec-20 14:20N 33°38' W 120°21'1112.2
2016-Dec-20 13:25N 33°38' W 120°34'8 8.8
2016-Dec-20 12:33N 33°38' W 120°43'1212.5
2016-Dec-20 11:33N 33°39' W 120°58'1612.7
2016-Dec-20 10:20N 33°39' W 121°17'3512.6
2016-Dec-20 07:33N 33°39' W 121°59'1212.4
2016-Dec-20 06:33N 33°40' W 122°14'1212.2
2016-Dec-20 05:33N 33°40' W 122°28'1312.6
2016-Dec-20 04:33N 33°40' W 122°43'1312.6
2016-Dec-20 03:31N 33°41' W 122°59'1212.4
2016-Dec-20 02:33N 33°41' W 123°14'1212.4
2016-Dec-20 01:33N 33°41' W 123°28'6712.2
2016-Dec-19 20:04N 33°48' W 124°48'  

Dump ship's entire track history